Time,TemperatureF,DewpointF,PressureIn,WindDirection,WindDirectionDegrees,WindSpeedMPH,WindSpeedGustMPH,Humidity,HourlyPrecipIn,Conditions,Clouds,dailyrainin,SoftwareType,DateUTC
2013-03-11 00:02:00,38.0,21.0,-100.00,South,186,8.0,11.0,50,0.00,,,-99.99,,2013-03-11 06:02:00,
2013-03-11 00:11:00,37.0,22.0,-100.00,South,185,7.0,10.0,56,0.00,,,-99.99,,2013-03-11 06:11:00,
2013-03-11 00:22:00,37.0,22.0,-100.00,South,191,9.0,12.0,55,0.00,,,-99.99,,2013-03-11 06:22:00,
2013-03-11 00:32:00,37.0,22.0,-100.00,South,191,9.0,12.0,55,0.00,,,-99.99,,2013-03-11 06:32:00,
2013-03-11 00:42:00,36.0,23.0,-100.00,South,188,9.0,12.0,58,0.00,,,-99.99,,2013-03-11 06:42:00,
2013-03-11 00:53:00,36.0,24.0,-100.00,South,184,10.0,14.0,60,0.00,,,-99.99,,2013-03-11 06:53:00,
2013-03-11 01:01:00,36.0,24.0,-100.00,South,184,10.0,14.0,60,0.00,,,-99.99,,2013-03-11 07:01:00,
2013-03-11 01:12:00,36.0,24.0,-100.00,South,184,10.0,14.0,60,0.00,,,-99.99,,2013-03-11 07:12:00,
2013-03-11 01:21:00,36.0,23.0,-100.00,South,188,11.0,16.0,60,0.00,,,-99.99,,2013-03-11 07:21:00,
2013-03-11 01:32:00,36.0,23.0,-100.00,South,188,11.0,16.0,60,0.00,,,-99.99,,2013-03-11 07:32:00,
2013-03-11 01:42:00,35.0,23.0,-100.00,South,189,9.0,12.0,62,0.00,,,-99.99,,2013-03-11 07:42:00,
2013-03-11 01:52:00,35.0,23.0,-100.00,South,189,9.0,12.0,62,0.00,,,-99.99,,2013-03-11 07:52:00,
2013-03-11 02:02:00,35.0,23.0,-100.00,South,189,9.0,12.0,62,0.00,,,-99.99,,2013-03-11 08:02:00,
2013-03-11 02:12:00,35.0,24.0,-100.00,South,189,9.0,12.0,63,0.00,,,-99.99,,2013-03-11 08:12:00,
2013-03-11 02:22:00,36.0,22.0,-100.00,SSW,203,11.0,13.0,58,0.00,,,-99.99,,2013-03-11 08:22:00,
2013-03-11 02:32:00,36.0,22.0,-100.00,SSW,203,11.0,13.0,58,0.00,,,-99.99,,2013-03-11 08:32:00,
2013-03-11 02:42:00,35.0,22.0,-100.00,SSW,208,10.0,12.0,58,0.00,,,-99.99,,2013-03-11 08:42:00,
2013-03-11 02:52:00,35.0,22.0,-100.00,SSW,208,10.0,12.0,58,0.00,,,-99.99,,2013-03-11 08:52:00,
2013-03-11 03:01:00,35.0,22.0,-100.00,SSW,208,10.0,12.0,58,0.00,,,-99.99,,2013-03-11 09:01:00,
2013-03-11 03:12:00,36.0,21.0,-100.00,SW,223,12.0,15.0,55,0.00,,,-99.99,,2013-03-11 09:12:00,
2013-03-11 03:22:00,37.0,20.0,-100.00,SW,230,17.0,20.0,50,0.00,,,-99.99,,2013-03-11 09:22:00,
2013-03-11 03:32:00,37.0,20.0,-100.00,SW,230,17.0,20.0,50,0.00,,,-99.99,,2013-03-11 09:32:00,
2013-03-11 03:42:00,36.0,20.0,-100.00,SW,215,10.0,12.0,54,0.00,,,-99.99,,2013-03-11 09:42:00,
2013-03-11 03:52:00,36.0,20.0,-100.00,SW,215,10.0,12.0,54,0.00,,,-99.99,,2013-03-11 09:52:00,
2013-03-11 04:02:00,36.0,20.0,-100.00,SW,215,10.0,12.0,54,0.00,,,-99.99,,2013-03-11 10:02:00,
2013-03-11 04:12:00,34.0,22.0,-100.00,South,188,7.0,11.0,60,0.00,,,-99.99,,2013-03-11 10:12:00,
2013-03-11 04:22:00,34.0,22.0,-100.00,South,188,7.0,11.0,60,0.00,,,-99.99,,2013-03-11 10:22:00,
2013-03-11 04:32:00,34.0,22.0,-100.00,South,188,7.0,11.0,60,0.00,,,-99.99,,2013-03-11 10:32:00,
2013-03-11 04:41:00,34.0,22.0,-100.00,SSW,193,8.0,11.0,61,0.00,,,-99.99,,2013-03-11 10:41:00,
2013-03-11 04:52:00,35.0,21.0,-100.00,SSW,206,9.0,13.0,57,0.00,,,-99.99,,2013-03-11 10:52:00,
2013-03-11 05:02:00,35.0,21.0,-100.00,SSW,206,9.0,13.0,57,0.00,,,-99.99,,2013-03-11 11:02:00,
2013-03-11 05:11:00,35.0,21.0,-100.00,SSW,206,9.0,13.0,57,0.00,,,-99.99,,2013-03-11 11:11:00,
2013-03-11 05:22:00,34.0,22.0,-100.00,SSW,193,10.0,13.0,62,0.00,,,-99.99,,2013-03-11 11:22:00,
2013-03-11 05:32:00,34.0,22.0,-100.00,SSW,193,10.0,13.0,62,0.00,,,-99.99,,2013-03-11 11:32:00,
2013-03-11 05:42:00,33.0,23.0,-100.00,South,189,5.0,6.0,68,0.00,,,-99.99,,2013-03-11 11:42:00,
2013-03-11 05:53:00,34.0,21.0,-100.00,SW,227,12.0,13.0,58,0.00,,,-99.99,,2013-03-11 11:53:00,
2013-03-11 06:02:00,34.0,21.0,-100.00,SW,227,12.0,13.0,58,0.00,,,-99.99,,2013-03-11 12:02:00,
2013-03-11 06:11:00,33.0,24.0,-100.00,South,184,5.0,8.0,69,0.00,,,-99.99,,2013-03-11 12:11:00,
2013-03-11 06:22:00,33.0,24.0,-100.00,South,184,5.0,8.0,69,0.00,,,-99.99,,2013-03-11 12:22:00,
2013-03-11 06:32:00,33.0,24.0,-100.00,South,184,5.0,8.0,69,0.00,,,-99.99,,2013-03-11 12:32:00,
2013-03-11 06:42:00,34.0,22.0,-100.00,SSW,205,9.0,13.0,61,0.00,,,-99.99,,2013-03-11 12:42:00,
2013-03-11 06:53:00,33.0,22.0,-100.00,SSW,192,6.0,9.0,66,0.00,,,-99.99,,2013-03-11 12:53:00,
2013-03-11 07:02:00,33.0,22.0,-100.00,SSW,192,6.0,9.0,66,0.00,,,-99.99,,2013-03-11 13:02:00,
2013-03-11 07:12:00,33.0,21.0,-100.00,South,185,10.0,13.0,59,0.00,,,-99.99,,2013-03-11 13:12:00,
2013-03-11 07:22:00,35.0,20.0,-100.00,SSW,192,9.0,12.0,55,0.00,,,-99.99,,2013-03-11 13:22:00,
2013-03-11 07:32:00,35.0,20.0,-100.00,SSW,192,9.0,12.0,55,0.00,,,-99.99,,2013-03-11 13:32:00,
2013-03-11 07:42:00,35.0,21.0,-100.00,SSW,208,9.0,14.0,57,0.00,,,-99.99,,2013-03-11 13:42:00,
2013-03-11 07:52:00,34.0,21.0,-100.00,SSW,200,8.0,11.0,58,0.00,,,-99.99,,2013-03-11 13:52:00,
2013-03-11 08:01:00,34.0,21.0,-100.00,SSW,200,8.0,11.0,58,0.00,,,-99.99,,2013-03-11 14:01:00,
2013-03-11 08:12:00,34.0,22.0,-100.00,SSW,210,9.0,12.0,61,0.00,,,-99.99,,2013-03-11 14:12:00,
2013-03-11 08:22:00,35.0,22.0,-100.00,SSW,206,10.0,13.0,61,0.00,,,-99.99,,2013-03-11 14:22:00,
2013-03-11 08:32:00,35.0,22.0,-100.00,SSW,206,10.0,13.0,61,0.00,,,-99.99,,2013-03-11 14:32:00,
2013-03-11 08:42:00,35.0,23.0,-100.00,SSW,196,10.0,13.0,61,0.00,,,-99.99,,2013-03-11 14:42:00,
2013-03-11 08:53:00,35.0,23.0,-100.00,SSW,196,7.0,10.0,62,0.00,,,-99.99,,2013-03-11 14:53:00,
2013-03-11 09:02:00,35.0,23.0,-100.00,SSW,196,7.0,10.0,62,0.00,,,-99.99,,2013-03-11 15:02:00,
2013-03-11 09:12:00,35.0,24.0,-100.00,South,186,3.0,4.0,64,0.00,,,-99.99,,2013-03-11 15:12:00,
2013-03-11 09:22:00,35.0,24.0,-100.00,SSW,192,6.0,8.0,63,0.00,,,-99.99,,2013-03-11 15:22:00,
2013-03-11 09:32:00,35.0,24.0,-100.00,SSW,192,6.0,8.0,63,0.00,,,-99.99,,2013-03-11 15:32:00,
2013-03-11 09:42:00,35.0,24.0,-100.00,SSW,193,8.0,11.0,64,0.00,,,-99.99,,2013-03-11 15:42:00,
2013-03-11 09:53:00,35.0,24.0,-100.00,SSW,193,8.0,11.0,64,0.00,,,-99.99,,2013-03-11 15:53:00,
2013-03-11 10:02:00,35.0,24.0,-100.00,SSW,193,8.0,11.0,64,0.00,,,-99.99,,2013-03-11 16:02:00,
2013-03-11 10:12:00,36.0,26.0,-100.00,SSE,164,7.0,10.0,64,0.00,,,-99.99,,2013-03-11 16:12:00,
2013-03-11 10:22:00,38.0,25.0,-100.00,SSW,198,5.0,7.0,59,0.00,,,-99.99,,2013-03-11 16:22:00,
2013-03-11 10:32:00,38.0,25.0,-100.00,SSW,198,5.0,7.0,59,0.00,,,-99.99,,2013-03-11 16:32:00,
2013-03-11 10:42:00,39.0,24.0,-100.00,SW,224,13.0,16.0,54,0.00,,,-99.99,,2013-03-11 16:42:00,
2013-03-11 10:52:00,40.0,26.0,-100.00,WSW,237,17.0,19.0,56,0.00,,,-99.99,,2013-03-11 16:52:00,
2013-03-11 11:02:00,40.0,26.0,-100.00,WSW,237,17.0,19.0,56,0.00,,,-99.99,,2013-03-11 17:02:00,
2013-03-11 11:13:00,40.0,26.0,-100.00,WSW,237,17.0,19.0,56,0.00,,,-99.99,,2013-03-11 17:13:00,
2013-03-11 11:24:00,41.0,28.0,-100.00,WSW,247,15.0,21.0,59,0.00,,,-99.99,,2013-03-11 17:24:00,
2013-03-11 11:33:00,41.0,28.0,-100.00,WSW,247,15.0,21.0,59,0.00,,,-99.99,,2013-03-11 17:33:00,
2013-03-11 11:42:00,42.0,28.0,-100.00,WSW,240,15.0,19.0,58,0.00,,,-99.99,,2013-03-11 17:42:00,
2013-03-11 11:53:00,42.0,28.0,-100.00,WSW,240,15.0,19.0,58,0.00,,,-99.99,,2013-03-11 17:53:00,
2013-03-11 12:01:00,42.0,28.0,-100.00,WSW,240,15.0,19.0,58,0.00,,,-99.99,,2013-03-11 18:01:00,
2013-03-11 12:11:00,43.0,29.0,-100.00,WSW,257,15.0,20.0,57,0.00,,,-99.99,,2013-03-11 18:11:00,
2013-03-11 12:22:00,45.0,31.0,-100.00,WSW,251,17.0,21.0,58,0.00,,,-99.99,,2013-03-11 18:22:00,
2013-03-11 12:32:00,45.0,31.0,-100.00,WSW,251,17.0,21.0,58,0.00,,,-99.99,,2013-03-11 18:32:00,
2013-03-11 12:42:00,47.0,32.0,-100.00,WSW,250,17.0,20.0,57,0.00,,,-99.99,,2013-03-11 18:42:00,
2013-03-11 12:53:00,47.0,32.0,-100.00,WSW,250,17.0,20.0,57,0.00,,,-99.99,,2013-03-11 18:53:00,
2013-03-11 13:02:00,47.0,32.0,-100.00,WSW,250,17.0,20.0,57,0.00,,,-99.99,,2013-03-11 19:02:00,
2013-03-11 13:12:00,48.0,32.0,-100.00,West,260,17.0,20.0,54,0.00,,,-99.99,,2013-03-11 19:12:00,
2013-03-11 13:22:00,48.0,32.0,-100.00,West,260,17.0,20.0,54,0.00,,,-99.99,,2013-03-11 19:22:00,
2013-03-11 13:32:00,48.0,32.0,-100.00,West,260,17.0,20.0,54,0.00,,,-99.99,,2013-03-11 19:32:00,
2013-03-11 13:42:00,50.0,32.0,-100.00,WSW,257,16.0,22.0,51,0.00,,,-99.99,,2013-03-11 19:42:00,
2013-03-11 13:52:00,50.0,32.0,-100.00,WSW,254,18.0,24.0,50,0.00,,,-99.99,,2013-03-11 19:52:00,
2013-03-11 14:02:00,50.0,32.0,-100.00,WSW,254,18.0,24.0,50,0.00,,,-99.99,,2013-03-11 20:02:00,
2013-03-11 14:11:00,50.0,33.0,-100.00,WSW,250,15.0,20.0,52,0.00,,,-99.99,,2013-03-11 20:11:00,
2013-03-11 14:22:00,50.0,33.0,-100.00,WSW,250,15.0,20.0,52,0.00,,,-99.99,,2013-03-11 20:22:00,
2013-03-11 14:32:00,50.0,33.0,-100.00,WSW,250,15.0,20.0,52,0.00,,,-99.99,,2013-03-11 20:32:00,
2013-03-11 14:42:00,51.0,31.0,-100.00,West,275,15.0,19.0,47,0.00,,,-99.99,,2013-03-11 20:42:00,
2013-03-11 14:53:00,52.0,32.0,-100.00,West,267,15.0,21.0,46,0.00,,,-99.99,,2013-03-11 20:53:00,
2013-03-11 15:02:00,52.0,32.0,-100.00,West,267,15.0,21.0,46,0.00,,,-99.99,,2013-03-11 21:02:00,
2013-03-11 15:12:00,51.0,33.0,-100.00,WSW,250,14.0,17.0,50,0.00,,,-99.99,,2013-03-11 21:12:00,
2013-03-11 15:22:00,51.0,33.0,-100.00,WSW,250,14.0,17.0,50,0.00,,,-99.99,,2013-03-11 21:22:00,
2013-03-11 15:32:00,51.0,33.0,-100.00,WSW,250,14.0,17.0,50,0.00,,,-99.99,,2013-03-11 21:32:00,
2013-03-11 15:43:00,51.0,31.0,-100.00,West,278,18.0,22.0,47,0.00,,,-99.99,,2013-03-11 21:43:00,
2013-03-11 15:53:00,51.0,33.0,-100.00,West,260,15.0,18.0,49,0.00,,,-99.99,,2013-03-11 21:53:00,
2013-03-11 16:02:00,51.0,33.0,-100.00,West,260,15.0,18.0,49,0.00,,,-99.99,,2013-03-11 22:02:00,
2013-03-11 16:12:00,50.0,33.0,-100.00,WSW,256,15.0,21.0,52,0.12,,,-99.99,,2013-03-11 22:12:00,
2013-03-11 16:22:00,49.0,34.0,-100.00,West,267,14.0,19.0,55,0.00,,,-99.99,,2013-03-11 22:22:00,
2013-03-11 16:32:00,49.0,34.0,-100.00,West,267,14.0,19.0,55,0.00,,,-99.99,,2013-03-11 22:32:00,
2013-03-11 16:43:00,49.0,34.0,-100.00,West,267,14.0,19.0,55,0.00,,,-99.99,,2013-03-11 22:43:00,
2013-03-11 16:53:00,50.0,32.0,-100.00,West,264,11.0,15.0,50,0.00,,,-99.99,,2013-03-11 22:53:00,
2013-03-11 17:02:00,50.0,32.0,-100.00,West,264,11.0,15.0,50,0.00,,,-99.99,,2013-03-11 23:02:00,
2013-03-11 17:12:00,50.0,32.0,-100.00,WNW,287,15.0,17.0,49,0.00,,,-99.99,,2013-03-11 23:12:00,
2013-03-11 17:22:00,51.0,32.0,-100.00,West,271,11.0,15.0,46,0.00,,,-99.99,,2013-03-11 23:22:00,
2013-03-11 17:32:00,51.0,32.0,-100.00,West,271,11.0,15.0,46,0.00,,,-99.99,,2013-03-11 23:32:00,
2013-03-11 17:42:00,51.0,32.0,-100.00,West,271,11.0,15.0,46,0.00,,,-99.99,,2013-03-11 23:42:00,
2013-03-11 17:53:00,51.0,31.0,-100.00,West,271,15.0,19.0,46,0.00,,,-99.99,,2013-03-11 23:53:00,
2013-03-11 18:02:00,51.0,31.0,-100.00,West,271,15.0,19.0,46,0.00,,,-99.99,,2013-03-12 00:02:00,
2013-03-11 18:12:00,50.0,33.0,-100.00,WSW,253,13.0,17.0,50,0.00,,,-99.99,,2013-03-12 00:12:00,
2013-03-11 18:22:00,50.0,33.0,-100.00,WSW,253,13.0,17.0,50,0.00,,,-99.99,,2013-03-12 00:22:00,
2013-03-11 18:32:00,50.0,33.0,-100.00,WSW,253,13.0,17.0,50,0.00,,,-99.99,,2013-03-12 00:32:00,
2013-03-11 18:42:00,50.0,31.0,-100.00,WSW,258,15.0,19.0,48,0.00,,,-99.99,,2013-03-12 00:42:00,
2013-03-11 18:53:00,49.0,32.0,-100.00,WSW,250,19.0,22.0,53,0.00,,,-99.99,,2013-03-12 00:53:00,
2013-03-11 19:02:00,49.0,32.0,-100.00,WSW,250,19.0,22.0,53,0.00,,,-99.99,,2013-03-12 01:02:00,
2013-03-11 19:11:00,48.0,33.0,-100.00,SW,227,16.0,19.0,55,0.00,,,-99.99,,2013-03-12 01:11:00,
2013-03-11 19:22:00,48.0,33.0,-100.00,SW,227,16.0,19.0,55,0.00,,,-99.99,,2013-03-12 01:22:00,
2013-03-11 19:32:00,48.0,33.0,-100.00,SW,227,16.0,19.0,55,0.00,,,-99.99,,2013-03-12 01:32:00,
2013-03-11 19:42:00,47.0,32.0,-100.00,WSW,239,15.0,19.0,57,0.00,,,-99.99,,2013-03-12 01:42:00,
2013-03-11 19:52:00,45.0,33.0,-100.00,WSW,241,12.0,15.0,61,0.00,,,-99.99,,2013-03-12 01:52:00,
2013-03-11 20:02:00,45.0,33.0,-100.00,WSW,241,12.0,15.0,61,0.00,,,-99.99,,2013-03-12 02:02:00,
2013-03-11 20:12:00,44.0,32.0,-100.00,SW,233,13.0,14.0,62,0.00,,,-99.99,,2013-03-12 02:12:00,
2013-03-11 20:22:00,44.0,32.0,-100.00,SW,227,14.0,15.0,63,0.00,,,-99.99,,2013-03-12 02:22:00,
2013-03-11 20:32:00,44.0,32.0,-100.00,SW,227,14.0,15.0,63,0.00,,,-99.99,,2013-03-12 02:32:00,
2013-03-11 20:42:00,43.0,32.0,-100.00,SW,234,14.0,17.0,64,0.00,,,-99.99,,2013-03-12 02:42:00,
2013-03-11 20:52:00,42.0,31.0,-100.00,SW,224,11.0,13.0,65,0.00,,,-99.99,,2013-03-12 02:52:00,
2013-03-11 21:01:00,42.0,31.0,-100.00,SW,224,11.0,13.0,65,0.00,,,-99.99,,2013-03-12 03:01:00,
2013-03-11 21:12:00,42.0,31.0,-100.00,SW,224,11.0,13.0,65,0.00,,,-99.99,,2013-03-12 03:12:00,
2013-03-11 21:22:00,43.0,31.0,-100.00,SW,229,14.0,17.0,62,0.00,,,-99.99,,2013-03-12 03:22:00,
2013-03-11 21:32:00,43.0,31.0,-100.00,SW,229,14.0,17.0,62,0.00,,,-99.99,,2013-03-12 03:32:00,
2013-03-11 21:42:00,42.0,30.0,-100.00,WSW,246,13.0,16.0,64,0.00,,,-99.99,,2013-03-12 03:42:00,
2013-03-11 21:52:00,41.0,30.0,-100.00,WSW,258,10.0,13.0,64,0.00,,,-99.99,,2013-03-12 03:52:00,
2013-03-11 22:02:00,41.0,30.0,-100.00,WSW,258,10.0,13.0,64,0.00,,,-99.99,,2013-03-12 04:02:00,
2013-03-11 22:12:00,40.0,31.0,-100.00,NNE,28,5.0,6.0,71,0.00,,,-99.99,,2013-03-12 04:12:00,
2013-03-11 22:22:00,40.0,31.0,-100.00,NNE,28,5.0,6.0,71,0.00,,,-99.99,,2013-03-12 04:22:00,
2013-03-11 22:32:00,40.0,31.0,-100.00,NNE,28,5.0,6.0,71,0.00,,,-99.99,,2013-03-12 04:32:00,
2013-03-11 22:42:00,40.0,31.0,-100.00,SW,227,8.0,11.0,69,0.00,,,-99.99,,2013-03-12 04:42:00,
2013-03-11 22:52:00,40.0,31.0,-100.00,WSW,257,8.0,9.0,72,0.00,,,-99.99,,2013-03-12 04:52:00,
2013-03-11 23:02:00,40.0,31.0,-100.00,WSW,257,8.0,9.0,72,0.00,,,-99.99,,2013-03-12 05:02:00,
2013-03-11 23:12:00,39.0,31.0,-100.00,West,281,8.0,9.0,74,0.00,,,-99.99,,2013-03-12 05:12:00,
2013-03-11 23:21:00,39.0,31.0,-100.00,West,281,8.0,9.0,74,0.00,,,-99.99,,2013-03-12 05:21:00,
2013-03-11 23:32:00,39.0,31.0,-100.00,West,281,8.0,9.0,74,0.00,,,-99.99,,2013-03-12 05:32:00,
2013-03-11 23:42:00,38.0,31.0,-100.00,WNW,289,8.0,10.0,74,0.00,,,-99.99,,2013-03-12 05:42:00,
2013-03-11 23:52:00,37.0,31.0,-100.00,West,260,6.0,8.0,78,0.00,,,-99.99,,2013-03-12 05:52:00,